createdAt,value
2023-04-14T00:00:51.983Z,1.36
2023-04-14T00:01:52.023Z,1.34
2023-04-14T00:02:52.251Z,1.31
2023-04-14T00:03:52.160Z,1.32
2023-04-14T00:04:52.187Z,1.33
2023-04-14T00:05:52.104Z,1.34
2023-04-14T00:06:52.138Z,1.33
2023-04-14T00:07:52.180Z,1.34
2023-04-14T00:08:52.268Z,1.33
2023-04-14T00:09:52.237Z,1.33
2023-04-14T00:10:52.246Z,1.34
2023-04-14T00:11:52.284Z,1.34
2023-04-14T00:12:52.302Z,1.31
2023-04-14T00:13:52.350Z,1.32
2023-04-14T00:14:52.351Z,1.32
2023-04-14T00:15:52.393Z,1.32
2023-04-14T00:16:52.464Z,1.34
2023-04-14T00:17:52.475Z,1.29
2023-04-14T00:18:52.454Z,1.31
2023-04-14T00:19:52.474Z,1.32
2023-04-14T00:20:52.544Z,1.25
2023-04-14T00:21:52.528Z,1.32
2023-04-14T00:22:52.578Z,1.33
2023-04-14T00:23:52.574Z,1.31
2023-04-14T00:24:52.586Z,1.31
2023-04-14T00:25:52.650Z,1.29
2023-04-14T00:26:52.643Z,1.29
2023-04-14T00:27:52.669Z,1.31
2023-04-14T00:28:52.737Z,1.31
2023-04-14T00:29:52.726Z,1.31
2023-04-14T00:30:52.807Z,1.31
2023-04-14T00:31:52.793Z,1.29
2023-04-14T00:32:52.862Z,1.28
2023-04-14T00:33:52.891Z,1.27
2023-04-14T00:34:52.871Z,1.30
2023-04-14T00:35:52.903Z,1.30
2023-04-14T00:36:52.933Z,1.27
2023-04-14T00:37:52.969Z,1.29
2023-04-14T00:38:52.980Z,1.28
2023-04-14T00:39:53.010Z,1.30
2023-04-14T00:40:53.061Z,1.29
2023-04-14T00:41:53.074Z,1.28
2023-04-14T00:42:53.120Z,1.28
2023-04-14T00:43:53.112Z,1.29
2023-04-14T00:44:53.140Z,1.28
2023-04-14T00:45:53.204Z,1.28
2023-04-14T00:46:53.254Z,1.28
2023-04-14T00:47:53.247Z,1.27
2023-04-14T00:48:53.253Z,1.26
2023-04-14T00:49:53.322Z,1.26
2023-04-14T00:50:53.344Z,1.29
2023-04-14T00:51:53.371Z,1.28
2023-04-14T00:52:53.390Z,1.26
2023-04-14T00:53:53.400Z,1.26
2023-04-14T00:54:53.438Z,1.26
2023-04-14T00:55:53.479Z,1.24
2023-04-14T00:56:53.508Z,1.26
2023-04-14T00:57:53.512Z,1.25
2023-04-14T00:58:53.554Z,1.25
2023-04-14T00:59:53.576Z,1.28
2023-04-14T01:00:53.694Z,1.26
2023-04-14T01:01:53.708Z,1.25
2023-04-14T01:02:53.742Z,1.26
2023-04-14T01:03:53.919Z,1.25
2023-04-14T01:04:54.847Z,1.27
2023-04-14T01:05:53.827Z,1.24
2023-04-14T01:06:53.832Z,1.24
2023-04-14T01:07:53.846Z,1.26
2023-04-14T01:08:53.869Z,1.25
2023-04-14T01:09:53.937Z,1.25
2023-04-14T01:10:53.952Z,1.24
2023-04-14T01:11:53.980Z,1.25
2023-04-14T01:12:54.018Z,1.24
2023-04-14T01:13:54.051Z,1.23
2023-04-14T01:14:54.078Z,1.24
2023-04-14T01:15:54.160Z,1.23
2023-04-14T01:16:54.186Z,1.23
2023-04-14T01:17:54.264Z,1.21
2023-04-14T01:18:54.230Z,1.22
2023-04-14T01:19:54.271Z,1.22
2023-04-14T01:20:54.342Z,1.26
2023-04-14T01:21:54.344Z,1.22
2023-04-14T01:22:54.377Z,1.22
2023-04-14T01:23:54.425Z,1.23
2023-04-14T01:24:54.445Z,1.23
2023-04-14T01:25:54.492Z,1.22
2023-04-14T01:26:54.538Z,1.23
2023-04-14T01:27:54.557Z,1.22
2023-04-14T01:28:54.599Z,1.20
2023-04-14T01:29:54.616Z,1.22
2023-04-14T01:30:54.654Z,1.21
2023-04-14T01:31:54.858Z,1.22
2023-04-14T01:32:54.732Z,1.22
2023-04-14T01:33:54.763Z,1.23
2023-04-14T01:34:54.799Z,1.21
2023-04-14T01:35:54.844Z,1.20
2023-04-14T01:36:54.893Z,1.22
2023-04-14T01:37:54.917Z,1.20
2023-04-14T01:38:54.984Z,1.21
2023-04-14T01:39:55.003Z,1.20
2023-04-14T01:40:55.063Z,1.20
2023-04-14T01:41:55.082Z,1.20
2023-04-14T01:42:55.111Z,1.20
2023-04-14T01:43:55.147Z,1.21
2023-04-14T01:44:55.186Z,1.20
2023-04-14T01:45:55.323Z,1.20
2023-04-14T01:46:55.271Z,1.20
2023-04-14T01:47:55.407Z,1.19
2023-04-14T01:48:55.375Z,1.18
2023-04-14T01:49:55.394Z,1.18
2023-04-14T01:50:55.448Z,1.20
2023-04-14T01:51:55.512Z,1.20
2023-04-14T01:52:55.503Z,1.21
2023-04-14T01:53:55.570Z,1.19
2023-04-14T01:54:55.631Z,1.19
2023-04-14T01:55:55.675Z,1.19
2023-04-14T01:56:55.677Z,1.18
2023-04-14T01:57:55.709Z,1.18
2023-04-14T01:58:55.761Z,1.18
2023-04-14T01:59:55.781Z,1.18
2023-04-14T02:00:55.822Z,1.19
2023-04-14T02:01:55.901Z,1.17
2023-04-14T02:02:56.002Z,1.17
2023-04-14T02:03:56.052Z,1.17
2023-04-14T02:04:55.999Z,1.17
2023-04-14T02:05:56.081Z,1.19
2023-04-14T02:06:56.091Z,1.17
2023-04-14T02:07:56.120Z,1.18
2023-04-14T02:08:56.159Z,1.16
2023-04-14T02:09:56.205Z,1.16
2023-04-14T02:10:56.260Z,1.15
2023-04-14T02:11:56.316Z,1.17
2023-04-14T02:12:56.323Z,1.18
2023-04-14T02:13:56.379Z,1.18
2023-04-14T02:14:56.420Z,1.17
2023-04-14T02:15:56.490Z,1.16
2023-04-14T02:16:56.621Z,1.13
2023-04-14T02:17:56.556Z,1.17
2023-04-14T02:18:56.597Z,1.16
2023-04-14T02:19:56.654Z,1.15
2023-04-14T02:20:56.708Z,1.15
2023-04-14T02:21:56.743Z,1.15
2023-04-14T02:22:56.792Z,1.14
2023-04-14T02:23:56.818Z,1.15
2023-04-14T02:24:56.880Z,1.14
2023-04-14T02:25:56.946Z,1.15
2023-04-14T02:26:56.972Z,1.15
2023-04-14T02:27:57.012Z,1.15
2023-04-14T02:28:57.052Z,1.15
2023-04-14T02:29:57.087Z,1.15
2023-04-14T02:30:57.175Z,1.16
2023-04-14T02:31:57.570Z,1.14
2023-04-14T02:32:57.282Z,1.14
2023-04-14T02:33:57.272Z,1.15
2023-04-14T02:34:57.353Z,1.13
2023-04-14T02:35:57.381Z,1.13
2023-04-14T02:36:57.446Z,1.14
2023-04-14T02:37:57.478Z,1.12
2023-04-14T02:38:57.546Z,1.14
2023-04-14T02:39:57.587Z,1.16
2023-04-14T02:40:57.623Z,1.15
2023-04-14T02:41:57.726Z,1.15
2023-04-14T02:42:57.732Z,1.15
2023-04-14T02:43:57.765Z,1.14
2023-04-14T02:44:57.823Z,1.12
2023-04-14T02:45:57.961Z,1.12
2023-04-14T02:46:57.945Z,1.14
2023-04-14T02:47:58.055Z,1.13
2023-04-14T02:48:58.053Z,1.14
2023-04-14T02:49:58.073Z,1.12
2023-04-14T02:50:58.152Z,1.13
2023-04-14T02:51:58.219Z,1.14
2023-04-14T02:52:58.225Z,1.14
2023-04-14T02:53:58.300Z,1.12
2023-04-14T02:54:58.324Z,1.14
2023-04-14T02:55:58.396Z,1.15
2023-04-14T02:56:58.463Z,1.14
2023-04-14T02:57:58.470Z,1.11
2023-04-14T02:58:58.648Z,1.13
2023-04-14T02:59:58.622Z,1.12
2023-04-14T03:00:58.625Z,1.12
2023-04-14T03:01:59.262Z,1.13
2023-04-14T03:02:58.800Z,1.13
2023-04-14T03:03:58.830Z,1.12
2023-04-14T03:04:58.818Z,1.13
2023-04-14T03:05:58.881Z,1.14
2023-04-14T03:06:58.959Z,1.11
2023-04-14T03:07:58.982Z,1.11
2023-04-14T03:08:59.272Z,1.09
2023-04-14T03:09:59.085Z,1.08
2023-04-14T03:10:59.139Z,1.10
2023-04-14T03:11:59.178Z,1.08
2023-04-14T03:12:59.218Z,1.09
2023-04-14T03:13:59.295Z,1.10
2023-04-14T03:14:59.313Z,1.09
2023-04-14T03:15:59.448Z,1.10
2023-04-14T03:16:59.419Z,1.08
2023-04-14T03:17:59.577Z,1.08
2023-04-14T03:18:59.643Z,1.08
2023-04-14T03:19:59.551Z,1.08
2023-04-14T03:20:59.569Z,1.10
2023-04-14T03:21:59.637Z,1.08
2023-04-14T03:22:59.689Z,1.08
2023-04-14T03:23:59.741Z,1.09
2023-04-14T03:24:59.736Z,1.08
2023-04-14T03:25:59.785Z,1.09
2023-04-14T03:26:59.841Z,1.08
2023-04-14T03:27:59.846Z,1.09
2023-04-14T03:29:00.102Z,1.08
2023-04-14T03:29:59.915Z,1.09
2023-04-14T03:30:59.969Z,1.08
2023-04-14T03:31:59.986Z,1.08
2023-04-14T03:33:00.076Z,1.08
2023-04-14T03:34:00.047Z,1.05
2023-04-14T03:35:00.063Z,1.06
2023-04-14T03:36:00.135Z,1.06
2023-04-14T03:37:00.140Z,1.07
2023-04-14T03:38:00.201Z,1.07
2023-04-14T03:39:00.331Z,1.04
2023-04-14T03:40:00.241Z,1.06
2023-04-14T03:41:00.269Z,1.07
2023-04-14T03:42:00.340Z,1.04
2023-04-14T03:43:00.340Z,1.06
2023-04-14T03:44:00.373Z,1.05
2023-04-14T03:45:00.413Z,1.04
2023-04-14T03:46:00.444Z,1.05
2023-04-14T03:47:00.586Z,1.04
2023-04-14T03:48:00.538Z,1.06
2023-04-14T03:49:00.743Z,1.06
2023-04-14T03:50:00.592Z,1.05
2023-04-14T03:51:00.638Z,1.04
2023-04-14T03:52:00.675Z,1.05
2023-04-14T03:53:00.704Z,1.05
2023-04-14T03:54:00.760Z,1.05
2023-04-14T03:55:00.807Z,1.05
2023-04-14T03:56:00.834Z,1.05
2023-04-14T03:57:00.883Z,1.04
2023-04-14T03:58:00.901Z,1.03
2023-04-14T03:59:01.248Z,1.05
2023-04-14T04:00:01.037Z,1.04
2023-04-14T04:01:01.017Z,1.02
2023-04-14T04:02:01.192Z,1.04
2023-04-14T04:03:01.405Z,1.04
2023-04-14T04:04:01.241Z,1.02
2023-04-14T04:05:01.296Z,1.01
2023-04-14T04:06:01.223Z,1.02
2023-04-14T04:07:01.235Z,1.02
2023-04-14T04:08:01.304Z,1.03
2023-04-14T04:09:01.530Z,1.03
2023-04-14T04:10:01.367Z,1.01
2023-04-14T04:11:01.458Z,1.02
2023-04-14T04:12:01.492Z,1.02
2023-04-14T04:13:01.605Z,1.01
2023-04-14T04:14:01.633Z,1.03
2023-04-14T04:15:01.585Z,1.02
2023-04-14T04:16:01.701Z,1.02
2023-04-14T04:17:01.683Z,1.02
2023-04-14T04:18:01.759Z,1.01
2023-04-14T04:19:01.984Z,1.02
2023-04-14T04:20:01.790Z,1.02
2023-04-14T04:21:02.178Z,1.03
2023-04-14T04:22:01.868Z,1.01
2023-04-14T04:23:01.896Z,1.02
2023-04-14T04:24:01.944Z,1.03
2023-04-14T04:25:01.950Z,1.03
2023-04-14T04:26:02.053Z,1.03
2023-04-14T04:27:02.071Z,1.02
2023-04-14T04:28:02.095Z,1.02
2023-04-14T04:29:02.342Z,1.02
2023-04-14T04:30:02.174Z,1.02
2023-04-14T04:31:02.228Z,1.02
2023-04-14T04:32:02.376Z,1.01
2023-04-14T04:33:02.314Z,1.03
2023-04-14T04:34:02.371Z,1.02
2023-04-14T04:35:02.380Z,1.01
2023-04-14T04:36:02.488Z,1.00
2023-04-14T04:37:02.489Z,1.01
2023-04-14T04:38:02.527Z,1.01
2023-04-14T04:39:02.792Z,0.99
2023-04-14T04:40:02.694Z,1.00
2023-04-14T04:41:02.634Z,0.99
2023-04-14T04:42:02.666Z,1.00
2023-04-14T04:43:02.748Z,1.00
2023-04-14T04:44:02.782Z,1.01
2023-04-14T04:45:02.792Z,0.99
2023-04-14T04:46:02.827Z,1.00
2023-04-14T04:47:02.902Z,0.99
2023-04-14T04:48:02.993Z,1.00
2023-04-14T04:49:03.326Z,0.99
2023-04-14T04:50:02.992Z,0.97
2023-04-14T04:51:03.026Z,0.99
2023-04-14T04:52:03.117Z,0.98
2023-04-14T04:53:03.103Z,0.99
2023-04-14T04:54:03.121Z,0.99
2023-04-14T04:55:03.187Z,0.99
2023-04-14T04:56:03.177Z,0.98
2023-04-14T04:57:03.225Z,0.99
2023-04-14T04:58:03.261Z,0.98
2023-04-14T04:59:03.392Z,1.00
2023-04-14T05:00:03.326Z,1.01
2023-04-14T05:01:03.396Z,0.99
2023-04-14T05:02:03.396Z,0.99
2023-04-14T05:03:03.599Z,0.99
2023-04-14T05:04:03.389Z,0.98
2023-04-14T05:05:03.384Z,0.99
2023-04-14T05:06:03.408Z,1.00
2023-04-14T05:07:03.399Z,0.99
2023-04-14T05:08:03.444Z,1.01
2023-04-14T05:09:03.423Z,0.99
2023-04-14T05:10:03.453Z,1.00
2023-04-14T05:11:03.448Z,1.00
2023-04-14T05:12:03.430Z,0.99
2023-04-14T05:13:03.475Z,0.98
2023-04-14T05:14:03.444Z,0.98
2023-04-14T05:15:03.531Z,0.97
2023-04-14T05:16:03.568Z,0.97
2023-04-14T05:17:03.459Z,0.99
2023-04-14T05:18:03.504Z,0.98
2023-04-14T05:19:03.685Z,0.98
2023-04-14T05:20:03.483Z,0.97
2023-04-14T05:21:03.491Z,0.97
2023-04-14T05:22:03.513Z,0.97
2023-04-14T05:23:03.462Z,0.96
2023-04-14T05:24:03.487Z,0.98
2023-04-14T05:25:03.475Z,0.97
2023-04-14T05:26:22.385Z,0.96
2023-04-14T05:28:03.554Z,0.97
2023-04-14T05:29:03.634Z,0.98
2023-04-14T05:30:03.434Z,1.00
2023-04-14T05:31:03.557Z,1.04
2023-04-14T05:32:03.429Z,1.04
2023-04-14T05:33:03.529Z,1.04
2023-04-14T05:34:03.653Z,1.06
2023-04-14T05:35:03.397Z,1.04
2023-04-14T05:36:03.387Z,1.03
2023-04-14T05:37:03.392Z,1.05
2023-04-14T05:38:03.387Z,1.03
2023-04-14T05:39:03.367Z,1.06
2023-04-14T05:40:03.383Z,1.06
2023-04-14T05:41:03.674Z,1.08
2023-04-14T05:42:03.361Z,1.12
2023-04-14T05:43:03.538Z,1.18
2023-04-14T05:44:03.736Z,1.20
2023-04-14T05:45:03.340Z,1.32
2023-04-14T05:46:03.506Z,1.38
2023-04-14T05:47:03.548Z,1.47
2023-04-14T05:48:03.546Z,1.50
2023-04-14T05:49:03.718Z,1.58
2023-04-14T05:50:03.583Z,1.65
2023-04-14T05:51:03.620Z,1.68
2023-04-14T05:52:03.724Z,1.76
2023-04-14T05:53:03.684Z,1.98
2023-04-14T05:54:03.976Z,2.12
2023-04-14T05:55:03.849Z,2.14
2023-04-14T05:56:03.845Z,2.19
2023-04-14T05:57:03.803Z,2.28
2023-04-14T05:58:03.832Z,2.40
2023-04-14T05:59:03.934Z,2.43
2023-04-14T06:00:03.931Z,2.52
2023-04-14T06:01:03.991Z,2.60
2023-04-14T06:02:04.048Z,2.72
2023-04-14T06:03:04.161Z,2.75
2023-04-14T06:04:04.550Z,2.93
2023-04-14T06:05:04.079Z,2.95
2023-04-14T06:06:03.928Z,3.15
2023-04-14T06:07:03.963Z,3.20
2023-04-14T06:08:04.002Z,3.24
2023-04-14T06:09:04.036Z,3.43
2023-04-14T06:10:03.941Z,3.58
2023-04-14T06:11:03.934Z,3.60
2023-04-14T06:12:03.947Z,3.61
2023-04-14T06:13:03.936Z,3.74
2023-04-14T06:14:03.930Z,3.82
2023-04-14T06:15:03.934Z,3.84
2023-04-14T06:16:03.975Z,3.98
2023-04-14T06:17:03.919Z,4.02
2023-04-14T06:18:03.949Z,4.15
2023-04-14T06:19:04.217Z,4.24
2023-04-14T06:20:03.992Z,4.28
2023-04-14T06:21:03.953Z,4.49
2023-04-14T06:22:03.995Z,4.49
2023-04-14T06:23:03.990Z,4.55
2023-04-14T06:24:04.060Z,4.60
2023-04-14T06:25:04.070Z,4.74
2023-04-14T06:26:04.094Z,4.77
2023-04-14T06:27:04.181Z,4.84
2023-04-14T06:28:04.241Z,4.86
2023-04-14T06:29:04.411Z,4.99
2023-04-14T06:30:04.365Z,5.06
2023-04-14T06:31:04.426Z,5.10
2023-04-14T06:32:04.504Z,5.17
2023-04-14T06:33:04.738Z,5.19
2023-04-14T06:34:04.601Z,5.54
2023-04-14T06:35:04.641Z,5.72
2023-04-14T06:36:04.748Z,5.93
2023-04-14T06:37:04.756Z,8.07
2023-04-14T06:38:04.802Z,7.78
2023-04-14T06:39:04.900Z,7.72
2023-04-14T06:40:04.955Z,7.51
2023-04-14T06:41:05.033Z,7.13
2023-04-14T06:42:05.067Z,6.90
2023-04-14T06:43:05.101Z,6.83
2023-04-14T06:44:05.162Z,6.77
2023-04-14T06:45:05.185Z,6.70
2023-04-14T06:46:05.253Z,6.66
2023-04-14T06:47:05.225Z,6.62
2023-04-14T06:48:05.271Z,6.54
2023-04-14T06:49:05.235Z,6.55
2023-04-14T06:50:05.221Z,6.42
2023-04-14T06:51:05.261Z,6.19
2023-04-14T06:52:05.249Z,6.10
2023-04-14T06:53:05.238Z,5.97
2023-04-14T06:54:05.399Z,5.99
2023-04-14T06:55:05.239Z,5.88
2023-04-14T06:56:05.244Z,5.82
2023-04-14T06:57:05.333Z,5.75
2023-04-14T06:58:05.320Z,5.75
2023-04-14T06:59:05.265Z,5.51
2023-04-14T07:00:05.289Z,5.53
2023-04-14T07:01:05.325Z,5.43
2023-04-14T07:02:05.287Z,5.24
2023-04-14T07:03:05.383Z,5.30
2023-04-14T07:04:07.725Z,5.24
2023-04-14T07:05:05.482Z,5.18
2023-04-14T07:06:05.357Z,5.12
2023-04-14T07:07:05.305Z,5.09
2023-04-14T07:08:05.274Z,4.97
2023-04-14T07:09:05.253Z,5.03
2023-04-14T07:10:05.315Z,4.89
2023-04-14T07:11:05.248Z,4.90
2023-04-14T07:12:05.237Z,4.87
2023-04-14T07:13:05.280Z,4.70
2023-04-14T07:14:05.275Z,4.67
2023-04-14T07:15:05.242Z,4.64
2023-04-14T07:16:05.259Z,4.62
2023-04-14T07:17:05.192Z,4.58
2023-04-14T07:18:05.233Z,4.43
2023-04-14T07:19:05.203Z,4.50
2023-04-14T07:20:05.184Z,4.40
2023-04-14T07:21:05.233Z,4.45
2023-04-14T07:22:05.165Z,4.28
2023-04-14T07:23:05.156Z,4.29
2023-04-14T07:24:05.318Z,4.23
2023-04-14T07:25:05.171Z,4.18
2023-04-14T07:26:05.155Z,4.09
2023-04-14T07:27:05.145Z,4.13
2023-04-14T07:28:05.171Z,4.09
2023-04-14T07:29:05.173Z,4.10
2023-04-14T07:30:05.112Z,4.00
2023-04-14T07:31:05.245Z,4.02
2023-04-14T07:32:05.183Z,3.93
2023-04-14T07:33:05.280Z,3.94
2023-04-14T07:34:05.096Z,3.92
2023-04-14T07:35:05.698Z,3.87
2023-04-14T07:36:05.260Z,3.03
2023-04-14T07:37:05.062Z,2.08
2023-04-14T07:38:05.049Z,1.74
2023-04-14T07:39:05.124Z,1.56
2023-04-14T07:40:05.047Z,1.39
2023-04-14T07:41:05.108Z,1.20
2023-04-14T07:42:05.028Z,1.31
2023-04-14T07:43:05.026Z,1.31
2023-04-14T07:44:05.018Z,1.32
2023-04-14T07:45:05.011Z,1.31
2023-04-14T07:46:05.282Z,1.36
2023-04-14T07:47:05.005Z,1.38
2023-04-14T07:48:05.015Z,1.43
2023-04-14T07:49:05.018Z,1.42
2023-04-14T07:50:04.974Z,1.44
2023-04-14T07:51:05.075Z,1.46
2023-04-14T07:52:04.998Z,1.45
2023-04-14T07:53:04.946Z,1.48
2023-04-14T07:54:04.958Z,1.54
2023-04-14T07:55:04.961Z,1.59
2023-04-14T07:56:04.931Z,1.54
2023-04-14T07:57:04.949Z,1.55
2023-04-14T07:58:04.939Z,1.49
2023-04-14T07:59:04.953Z,1.53
2023-04-14T08:00:04.967Z,1.50
2023-04-14T08:01:04.899Z,1.57
2023-04-14T08:02:05.019Z,1.54
2023-04-14T08:03:05.068Z,1.55
2023-04-14T08:04:05.041Z,1.49
2023-04-14T08:05:04.918Z,1.44
2023-04-14T08:06:04.886Z,1.40
2023-04-14T08:07:04.849Z,1.45
2023-04-14T08:08:04.936Z,1.36
2023-04-14T08:09:04.850Z,1.33
2023-04-14T08:10:04.862Z,1.38
2023-04-14T08:11:04.840Z,1.42
2023-04-14T08:12:04.818Z,1.37
2023-04-14T08:13:04.885Z,1.39
2023-04-14T08:14:04.872Z,1.38
2023-04-14T08:15:04.928Z,1.40
2023-04-14T08:16:04.931Z,1.38
2023-04-14T08:17:04.956Z,1.33
2023-04-14T08:18:04.979Z,1.29
2023-04-14T08:19:05.367Z,1.30
2023-04-14T08:20:04.979Z,1.19
2023-04-14T08:21:04.979Z,1.21
2023-04-14T08:22:04.991Z,1.22
2023-04-14T08:23:05.015Z,1.31
2023-04-14T08:24:05.040Z,1.35
2023-04-14T08:25:05.222Z,1.36
2023-04-14T08:26:05.072Z,1.27
2023-04-14T08:27:05.101Z,1.25
2023-04-14T08:28:05.118Z,1.29
2023-04-14T08:29:05.136Z,1.31
2023-04-14T08:30:05.170Z,1.35
2023-04-14T08:31:05.173Z,1.43
2023-04-14T08:32:05.297Z,1.49
2023-04-14T08:33:05.298Z,1.52
2023-04-14T08:34:05.229Z,1.54
2023-04-14T08:35:37.096Z,1.29
2023-04-14T08:36:06.240Z,1.30
2023-04-14T08:37:05.326Z,1.31
2023-04-14T08:38:05.213Z,1.45
2023-04-14T08:39:05.225Z,1.65
2023-04-14T08:40:05.237Z,1.99
2023-04-14T08:41:05.213Z,1.65
2023-04-14T08:42:05.741Z,1.31
2023-04-14T08:43:05.299Z,1.27
2023-04-14T08:44:05.381Z,1.11
2023-04-14T08:45:05.438Z,1.29
2023-04-14T08:46:05.503Z,1.37
2023-04-14T08:47:05.809Z,1.33
2023-04-14T08:48:05.751Z,1.36
2023-04-14T08:49:05.654Z,1.36
2023-04-14T08:50:06.240Z,1.35
2023-04-14T08:51:05.797Z,1.38
2023-04-14T08:52:05.769Z,1.42
2023-04-14T08:53:05.800Z,1.46
2023-04-14T08:54:05.857Z,1.47
2023-04-14T08:55:06.283Z,1.51
2023-04-14T08:56:05.890Z,1.55
2023-04-14T08:57:06.740Z,1.60
2023-04-14T08:58:05.893Z,1.66
2023-04-14T08:59:05.900Z,1.72
2023-04-14T09:00:06.012Z,1.92
2023-04-14T09:01:05.968Z,2.24
2023-04-14T09:02:05.989Z,2.53
2023-04-14T09:03:05.994Z,2.69
2023-04-14T09:04:06.137Z,2.78
2023-04-14T09:05:05.937Z,2.95
2023-04-14T09:06:05.980Z,3.05
2023-04-14T09:07:06.052Z,3.16
2023-04-14T09:08:06.147Z,3.24
2023-04-14T09:09:06.189Z,3.39
2023-04-14T09:10:06.336Z,3.46
2023-04-14T09:11:06.330Z,3.45
2023-04-14T09:12:06.764Z,3.45
2023-04-14T09:13:06.409Z,3.61
2023-04-14T09:14:06.507Z,3.59
2023-04-14T09:15:06.508Z,3.72
2023-04-14T09:16:06.559Z,3.79
2023-04-14T09:17:06.781Z,3.78
2023-04-14T09:18:06.686Z,3.73
2023-04-14T09:19:07.464Z,3.92
2023-04-14T09:20:34.613Z,3.90
2023-04-14T09:21:50.472Z,3.91
2023-04-14T09:22:07.722Z,3.91
2023-04-14T09:23:06.679Z,3.94
2023-04-14T09:24:06.711Z,4.06
2023-04-14T09:25:06.678Z,4.16
2023-04-14T09:26:06.680Z,4.32
2023-04-14T09:27:06.669Z,4.57
2023-04-14T09:28:06.678Z,4.47
2023-04-14T09:29:06.751Z,4.66
2023-04-14T09:30:06.688Z,4.66
2023-04-14T09:31:06.693Z,4.52
2023-04-14T09:32:06.675Z,4.62
2023-04-14T09:33:06.850Z,4.99
2023-04-14T09:34:06.684Z,4.85
2023-04-14T09:35:06.608Z,3.28
2023-04-14T09:36:06.755Z,2.68
2023-04-14T09:37:06.796Z,1.96
2023-04-14T09:38:06.598Z,1.75
2023-04-14T09:39:06.593Z,1.51
2023-04-14T09:40:06.607Z,1.27
2023-04-14T09:41:06.769Z,1.32
2023-04-14T09:42:06.573Z,1.13
2023-04-14T09:43:06.574Z,1.01
2023-04-14T09:44:06.568Z,0.96
2023-04-14T09:45:06.570Z,0.91
2023-04-14T09:46:06.780Z,0.94
2023-04-14T09:47:07.324Z,1.01
2023-04-14T09:48:06.545Z,1.08
2023-04-14T09:49:06.525Z,1.12
2023-04-14T09:50:06.534Z,1.16
2023-04-14T09:51:06.608Z,1.18
2023-04-14T09:52:06.519Z,1.21
2023-04-14T09:53:06.497Z,1.20
2023-04-14T09:54:06.866Z,1.22
2023-04-14T09:55:06.490Z,1.22
2023-04-14T09:56:06.536Z,1.23
2023-04-14T09:57:06.479Z,1.25
2023-04-14T09:58:06.473Z,1.32
2023-04-14T09:59:06.618Z,1.34
2023-04-14T10:00:06.457Z,1.38
2023-04-14T10:01:06.525Z,1.46
2023-04-14T10:02:06.634Z,1.45
2023-04-14T10:03:06.650Z,1.53
2023-04-14T10:04:06.658Z,1.62
2023-04-14T10:05:06.851Z,1.65
2023-04-14T10:06:06.760Z,1.65
2023-04-14T10:07:06.932Z,1.68
2023-04-14T10:08:06.895Z,1.75
2023-04-14T10:09:06.957Z,1.80
2023-04-14T10:10:06.969Z,1.82
2023-04-14T10:11:07.039Z,1.90
2023-04-14T10:12:09.097Z,1.94
2023-04-14T10:13:09.801Z,1.97
2023-04-14T10:14:07.058Z,1.98
2023-04-14T10:15:07.057Z,2.00
2023-04-14T10:16:07.108Z,2.05
2023-04-14T10:17:07.066Z,2.14
2023-04-14T10:18:07.043Z,2.28
2023-04-14T10:19:07.247Z,2.33
2023-04-14T10:20:07.031Z,2.45
2023-04-14T10:21:07.021Z,2.49
2023-04-14T10:22:07.030Z,2.53
2023-04-14T10:23:07.001Z,2.52
2023-04-14T10:24:07.780Z,2.54
2023-04-14T10:25:07.029Z,2.72
2023-04-14T10:26:07.291Z,2.79
2023-04-14T10:27:07.346Z,2.88
2023-04-14T10:28:07.066Z,3.02
2023-04-14T10:29:06.996Z,3.00
2023-04-14T10:30:06.938Z,2.62
2023-04-14T10:31:06.947Z,2.49
2023-04-14T10:32:07.416Z,2.37
2023-04-14T10:33:07.001Z,1.96
2023-04-14T10:34:06.947Z,2.04
2023-04-14T10:35:06.923Z,1.87
2023-04-14T10:36:06.929Z,1.84
2023-04-14T10:37:07.415Z,1.82
2023-04-14T10:38:06.988Z,1.76
2023-04-14T10:39:06.890Z,1.74
2023-04-14T10:40:07.114Z,1.63
2023-04-14T10:41:07.919Z,1.66
2023-04-14T10:42:07.325Z,1.57
2023-04-14T10:43:06.855Z,1.37
2023-04-14T10:44:06.857Z,1.27
2023-04-14T10:45:06.893Z,1.20
2023-04-14T10:46:06.863Z,1.43
2023-04-14T10:47:06.924Z,1.38
2023-04-14T10:48:06.913Z,1.25
2023-04-14T10:49:06.865Z,1.18
2023-04-14T10:50:06.800Z,1.19
2023-04-14T10:51:06.906Z,1.20
2023-04-14T10:52:06.810Z,1.12
2023-04-14T10:53:07.307Z,1.12
2023-04-14T10:54:06.967Z,1.09
2023-04-14T10:55:06.789Z,1.05
2023-04-14T10:56:06.791Z,1.12
2023-04-14T10:57:06.804Z,1.15
2023-04-14T10:58:06.770Z,1.21
2023-04-14T10:59:06.781Z,1.24
2023-04-14T11:00:06.776Z,1.33
2023-04-14T11:01:06.788Z,1.74
2023-04-14T11:02:06.875Z,2.05
2023-04-14T11:03:06.906Z,2.18
2023-04-14T11:04:06.839Z,2.28
2023-04-14T11:05:06.868Z,2.43
2023-04-14T11:06:06.823Z,2.52
2023-04-14T11:07:06.702Z,2.74
2023-04-14T11:08:06.827Z,2.85
2023-04-14T11:09:06.693Z,2.88
2023-04-14T11:10:06.786Z,3.05
2023-04-14T11:11:06.779Z,3.21
2023-04-14T11:12:06.872Z,3.36
2023-04-14T11:13:07.365Z,3.47
2023-04-14T11:14:06.966Z,3.61
2023-04-14T11:15:06.953Z,3.70
2023-04-14T11:16:07.482Z,3.86
2023-04-14T11:17:07.109Z,3.97
2023-04-14T11:18:07.144Z,4.32
2023-04-14T11:19:07.087Z,4.39
2023-04-14T11:20:07.169Z,4.37
2023-04-14T11:21:07.224Z,4.43
2023-04-14T11:22:07.188Z,4.24
2023-04-14T11:23:07.254Z,4.07
2023-04-14T11:24:07.319Z,4.02
2023-04-14T11:25:07.362Z,4.00
2023-04-14T11:26:07.805Z,4.04
2023-04-14T11:27:07.401Z,3.99
2023-04-14T11:28:07.470Z,4.06
2023-04-14T11:29:07.542Z,4.02
2023-04-14T11:30:07.706Z,3.94
2023-04-14T11:31:07.838Z,3.89
2023-04-14T11:32:07.731Z,3.95
2023-04-14T11:33:07.824Z,3.93
2023-04-14T11:34:07.820Z,3.90
2023-04-14T11:35:07.916Z,3.87
2023-04-14T11:36:08.353Z,3.76
2023-04-14T11:37:07.991Z,3.79
2023-04-14T11:38:08.345Z,3.74
2023-04-14T11:39:09.827Z,3.81
2023-04-14T11:40:08.140Z,3.68
2023-04-14T11:41:08.298Z,3.65
2023-04-14T11:42:08.281Z,3.67
2023-04-14T11:43:08.380Z,3.64
2023-04-14T11:44:08.419Z,3.57
2023-04-14T11:45:08.493Z,3.56
2023-04-14T11:46:08.890Z,3.59
2023-04-14T11:47:08.604Z,3.58
2023-04-14T11:48:08.639Z,3.49
2023-04-14T11:49:08.709Z,3.51
2023-04-14T11:50:08.826Z,3.44
2023-04-14T11:51:08.777Z,3.42
2023-04-14T11:52:08.773Z,3.37
2023-04-14T11:53:08.817Z,3.34
2023-04-14T11:54:08.853Z,3.31
2023-04-14T11:55:08.853Z,3.21
2023-04-14T11:56:08.856Z,3.18
2023-04-14T11:57:08.860Z,3.20
2023-04-14T11:58:08.908Z,3.19
2023-04-14T11:59:08.973Z,3.12
2023-04-14T12:00:09.033Z,3.14
2023-04-14T12:01:08.984Z,3.06
2023-04-14T12:02:09.131Z,3.00
2023-04-14T12:03:09.233Z,3.00
2023-04-14T12:04:09.176Z,3.00
2023-04-14T12:05:09.140Z,3.01
2023-04-14T12:06:09.031Z,3.07
2023-04-14T12:07:08.990Z,2.97
2023-04-14T12:08:09.044Z,2.99
2023-04-14T12:09:09.014Z,3.03
2023-04-14T12:10:09.004Z,2.94
2023-04-14T12:11:08.963Z,2.89
2023-04-14T12:12:08.961Z,2.89
2023-04-14T12:13:08.965Z,2.86
2023-04-14T12:14:08.965Z,2.87
2023-04-14T12:15:08.943Z,2.86
2023-04-14T12:16:08.989Z,2.81
2023-04-14T12:17:08.969Z,2.79
2023-04-14T12:18:08.970Z,2.80
2023-04-14T12:19:08.937Z,2.78
2023-04-14T12:20:08.917Z,2.77
2023-04-14T12:21:11.677Z,2.74
2023-04-14T12:22:08.889Z,2.74
2023-04-14T12:23:08.888Z,2.74
2023-04-14T12:24:08.883Z,2.68
2023-04-14T12:25:08.913Z,2.69
2023-04-14T12:26:08.857Z,2.62
2023-04-14T12:27:08.857Z,2.65
2023-04-14T12:28:08.895Z,2.59
2023-04-14T12:29:08.864Z,2.55
2023-04-14T12:30:08.873Z,2.54
2023-04-14T12:31:08.878Z,2.50
2023-04-14T12:32:08.871Z,2.52
2023-04-14T12:33:08.793Z,2.57
2023-04-14T12:34:08.804Z,2.51
2023-04-14T12:35:08.791Z,2.46
2023-04-14T12:36:08.823Z,2.48
2023-04-14T12:37:08.802Z,2.44
2023-04-14T12:38:08.782Z,2.45
2023-04-14T12:39:08.840Z,2.42
2023-04-14T12:40:10.647Z,2.41
2023-04-14T12:41:08.768Z,2.44
2023-04-14T12:42:08.747Z,2.41
2023-04-14T12:43:08.749Z,2.39
2023-04-14T12:44:08.809Z,2.38
2023-04-14T12:45:08.742Z,2.37
2023-04-14T12:46:08.734Z,2.32
2023-04-14T12:47:08.824Z,2.38
2023-04-14T12:48:08.826Z,2.31
2023-04-14T12:49:08.713Z,2.34
2023-04-14T12:50:08.699Z,2.32
2023-04-14T12:51:09.442Z,2.28
2023-04-14T12:52:08.936Z,2.29
2023-04-14T12:53:08.663Z,2.28
2023-04-14T12:54:08.660Z,2.27
2023-04-14T12:55:08.693Z,2.25
2023-04-14T12:56:08.681Z,2.20
2023-04-14T12:57:08.660Z,2.19
2023-04-14T12:58:08.650Z,2.16
2023-04-14T12:59:08.640Z,2.21
2023-04-14T13:00:08.629Z,2.18
2023-04-14T13:01:08.670Z,2.13
2023-04-14T13:02:08.716Z,2.11
2023-04-14T13:03:08.750Z,2.10
2023-04-14T13:04:08.787Z,2.08
2023-04-14T13:05:08.602Z,2.08
2023-04-14T13:06:08.596Z,2.06
2023-04-14T13:07:08.570Z,2.08
2023-04-14T13:08:08.581Z,2.05
2023-04-14T13:09:08.555Z,2.02
2023-04-14T13:10:08.552Z,1.95
2023-04-14T13:11:08.553Z,1.93
2023-04-14T13:12:08.543Z,1.97
2023-04-14T13:13:08.572Z,2.03
2023-04-14T13:14:08.541Z,1.98
2023-04-14T13:15:08.525Z,1.98
2023-04-14T13:16:13.519Z,1.98
2023-04-14T13:17:09.594Z,1.98
2023-04-14T13:18:08.526Z,1.96
2023-04-14T13:19:08.479Z,1.94
2023-04-14T13:20:08.466Z,1.98